Terminal Aerodrome Forecast
Issued by NWS

Home | Current Version | Previous Version | Text Only | Print | Product List | Glossary On
Versions: 1 2 3 4 5 6 7 8 9 10 11 12 13
659
FTUS44 KCRP 251124
TAFALI
TAF
KALI 251124Z 2512/2612 12005KT P6SM SCT020
      TEMPO 2512/2514 BKN020
     FM251500 16010G18KT P6SM VCSH SCT030 OVC050
     FM251800 13015G23KT P6SM VCTS SCT040CB BKN060
      TEMPO 2518/2522 VRB15G25KT TSRA OVC030CB
     FM260200 12009KT P6SM BKN025
     FM261000 07005KT P6SM VCSH BKN025=

USA.gov is the U.S. government's official web portal to all federal, state and local government web resources and services.